메인 페이지
METAR-TAF:

METAR-TAF

공항 :

Ponca City, 오클라호마, 미국

위도: 36-43-50N, 경도: 097-05-59W, 고도: 307m

현재 날씨관측

예보는 27분 전, 00:53시(UTC)에 발표되었습니다.
7kt
온도 10°C
습도 71%
기압 1026 hPa
시정: 16.1km
맑음

METAR: KPNC 260053Z AUTO 36007KT 10SM CLR 10/05 A3029 RMK AO2 SLP255 T01000050

시각: 20:20 (01:20 UTC)

예보

예보는 1 시간 57분 전, 23:23시(UTC)에 발표되었습니다.
예보 대상 시간: 26일 00시부터 26일 24시까지 (UTC)
7kt
시정: 10km
고도 4000ft 상공 구름 많음
26일 0400시부터 (UTC)
동북동5kt
시정: 10km
고도 10000ft 상공 구름 보통
일시적
26일 08시부터 26일 12시까지 (UTC)
고도 1500ft 상공 구름 많음
26일 1500시부터 (UTC)
남동7kt
시정: 10km
고도 10000ft 상공 구름 보통

TAF: KPNC 252323Z 2600/2624 01007KT P6SM BKN040 FM260400 06005KT P6SM SCT100 TEMPO 2608/2612 BKN015 FM261500 13007KT P6SM SCT100

4,000개 이상의 공항 관측 자료 및 예보 (METAR 및 TAF 보고).

지도상에서 검색 가능한 기상관측소가 노란 점과 빨간 점으로 표시되어 있습니다.

기상관측소 명을 보려면 표시 위로 마우스를 이동하세요.

날씨 관측과 예보를 보려면 클릭하세요.

지도 변경 : 확대하려면 엑스 표시가 있는 녹색 버튼, 축소하려면 빼기 표시가 있는 녹색 버튼, 다음 페이지의 지도를 보려면 녹색 화살표를 클릭하세요.


METAR-TAF: